Portada
METAR-TAF:

METAR-TAF

Aeropuertos :

Helipuerto de Algeciras

Algeciras, España

latitud: 36-07-44N, longitud: 05-26-28W, altitud: 30 m

Observación

El informe se hizo hace 30 minutos, a las 11:00 UTC
Viento 14 kt del este
Temperatura 18°C
Humedad 88%
Presión 1014 hPa
Visibilidad: 5000 m
Cielo nuboso a una altura de 1000 ft
Cielo cubierto a una altura de 1900 ft
lluvia

METAR: LEAG 201100Z AUTO 08014KT 5000 RA BKN010 OVC019 18/16 Q1014

Hora: 13:30 (11:30 UTC)


TAF: falta

Observaciones y pronósticos meteorológicos de más de 4000 aeropuertos (mensajes METAR y TAF).

Los puntos amarillos y rojos representan las estaciones disponibles.

Ponga el ratón en el punto deseado para ver el nombre de la estación.

Haga clic para ver las observaciones y los pronósticos meteorológicos.

Para cambiar el mapa : haga clic en los botones verdes con una cruz de color negro para hacer un zoom, en el botón verde con un guión para alejar o en las flechas verdes para mapas adyacentes.


METAR-TAF: